sensor_id;sensor_type;location;lat;lon;timestamp;temperature;humidity
15160;DHT22;7680;48.800;9.680;2022-09-03T00:00:54;14.60;99.90
15160;DHT22;7680;48.800;9.680;2022-09-03T00:03:33;14.70;99.90
15160;DHT22;7680;48.800;9.680;2022-09-03T00:06:12;14.60;99.90
15160;DHT22;7680;48.800;9.680;2022-09-03T00:08:53;14.50;99.90
15160;DHT22;7680;48.800;9.680;2022-09-03T00:11:37;14.40;99.90
15160;DHT22;7680;48.800;9.680;2022-09-03T00:14:16;14.30;99.90
15160;DHT22;7680;48.800;9.680;2022-09-03T00:16:56;14.30;99.90
15160;DHT22;7680;48.800;9.680;2022-09-03T00:19:33;14.30;99.90
15160;DHT22;7680;48.800;9.680;2022-09-03T00:22:12;14.20;99.90
15160;DHT22;7680;48.800;9.680;2022-09-03T00:24:49;14.20;99.90
15160;DHT22;7680;48.800;9.680;2022-09-03T00:27:26;14.20;99.90
15160;DHT22;7680;48.800;9.680;2022-09-03T00:30:02;14.30;99.90
15160;DHT22;7680;48.800;9.680;2022-09-03T00:32:40;14.30;99.90
15160;DHT22;7680;48.800;9.680;2022-09-03T00:35:22;14.20;99.90
15160;DHT22;7680;48.800;9.680;2022-09-03T00:37:59;14.30;99.90
15160;DHT22;7680;48.800;9.680;2022-09-03T00:40:50;14.30;99.90
15160;DHT22;7680;48.800;9.680;2022-09-03T00:43:40;14.20;99.90
15160;DHT22;7680;48.800;9.680;2022-09-03T00:46:23;14.20;99.90
15160;DHT22;7680;48.800;9.680;2022-09-03T00:49:14;14.10;99.90
15160;DHT22;7680;48.800;9.680;2022-09-03T00:52:02;14.10;99.90
15160;DHT22;7680;48.800;9.680;2022-09-03T00:54:49;14.00;99.90
15160;DHT22;7680;48.800;9.680;2022-09-03T00:57:43;14.00;99.90
15160;DHT22;7680;48.800;9.680;2022-09-03T01:00:25;14.00;99.90
15160;DHT22;7680;48.800;9.680;2022-09-03T01:03:05;14.00;99.90
15160;DHT22;7680;48.800;9.680;2022-09-03T01:05:55;14.00;99.90
15160;DHT22;7680;48.800;9.680;2022-09-03T01:08:47;14.10;99.90
15160;DHT22;7680;48.800;9.680;2022-09-03T01:11:41;14.10;99.90
15160;DHT22;7680;48.800;9.680;2022-09-03T01:14:30;14.20;99.90
15160;DHT22;7680;48.800;9.680;2022-09-03T01:17:19;14.30;99.90
15160;DHT22;7680;48.800;9.680;2022-09-03T01:20:10;14.30;99.90
15160;DHT22;7680;48.800;9.680;2022-09-03T01:23:17;14.40;99.90
15160;DHT22;7680;48.800;9.680;2022-09-03T01:26:34;14.50;99.90
15160;DHT22;7680;48.800;9.680;2022-09-03T01:29:23;14.60;99.90
15160;DHT22;7680;48.800;9.680;2022-09-03T01:32:04;14.50;99.90
15160;DHT22;7680;48.800;9.680;2022-09-03T01:34:47;14.60;99.90
15160;DHT22;7680;48.800;9.680;2022-09-03T01:37:33;14.60;99.90
15160;DHT22;7680;48.800;9.680;2022-09-03T01:40:17;14.50;99.90
15160;DHT22;7680;48.800;9.680;2022-09-03T01:43:09;14.60;99.90
15160;DHT22;7680;48.800;9.680;2022-09-03T01:45:56;14.60;99.90
15160;DHT22;7680;48.800;9.680;2022-09-03T01:48:41;14.70;99.90
15160;DHT22;7680;48.800;9.680;2022-09-03T01:51:19;14.60;99.90
15160;DHT22;7680;48.800;9.680;2022-09-03T01:54:16;14.50;99.90
15160;DHT22;7680;48.800;9.680;2022-09-03T01:57:21;14.50;99.90
15160;DHT22;7680;48.800;9.680;2022-09-03T02:00:09;14.50;99.90
15160;DHT22;7680;48.800;9.680;2022-09-03T02:02:47;14.60;99.90
15160;DHT22;7680;48.800;9.680;2022-09-03T02:05:23;14.70;99.90
15160;DHT22;7680;48.800;9.680;2022-09-03T02:08:00;14.70;99.90
15160;DHT22;7680;48.800;9.680;2022-09-03T02:10:39;14.80;99.90
15160;DHT22;7680;48.800;9.680;2022-09-03T02:13:16;14.80;99.90
15160;DHT22;7680;48.800;9.680;2022-09-03T02:15:52;14.90;99.90
15160;DHT22;7680;48.800;9.680;2022-09-03T02:18:30;14.90;99.90
15160;DHT22;7680;48.800;9.680;2022-09-03T02:21:06;14.90;99.90
15160;DHT22;7680;48.800;9.680;2022-09-03T02:23:41;14.90;99.90
15160;DHT22;7680;48.800;9.680;2022-09-03T02:26:17;15.00;99.90
15160;DHT22;7680;48.800;9.680;2022-09-03T02:28:53;14.80;99.90
15160;DHT22;7680;48.800;9.680;2022-09-03T02:31:26;14.70;99.90
15160;DHT22;7680;48.800;9.680;2022-09-03T02:34:01;14.70;99.90
15160;DHT22;7680;48.800;9.680;2022-09-03T02:36:38;14.70;99.90
15160;DHT22;7680;48.800;9.680;2022-09-03T02:39:15;14.70;99.90
15160;DHT22;7680;48.800;9.680;2022-09-03T02:41:50;14.80;99.90
15160;DHT22;7680;48.800;9.680;2022-09-03T02:44:29;14.80;99.90
15160;DHT22;7680;48.800;9.680;2022-09-03T02:47:06;14.80;99.90
15160;DHT22;7680;48.800;9.680;2022-09-03T02:49:41;15.00;99.90
15160;DHT22;7680;48.800;9.680;2022-09-03T02:52:16;15.00;99.90
15160;DHT22;7680;48.800;9.680;2022-09-03T02:54:49;14.80;99.90
15160;DHT22;7680;48.800;9.680;2022-09-03T02:57:22;14.80;99.90
15160;DHT22;7680;48.800;9.680;2022-09-03T02:59:58;14.80;99.90
15160;DHT22;7680;48.800;9.680;2022-09-03T03:02:31;14.70;99.90
15160;DHT22;7680;48.800;9.680;2022-09-03T03:05:06;14.80;99.90
15160;DHT22;7680;48.800;9.680;2022-09-03T03:07:41;14.90;99.90
15160;DHT22;7680;48.800;9.680;2022-09-03T03:10:14;14.90;99.90
15160;DHT22;7680;48.800;9.680;2022-09-03T03:12:48;15.00;99.90
15160;DHT22;7680;48.800;9.680;2022-09-03T03:15:21;15.00;99.90
15160;DHT22;7680;48.800;9.680;2022-09-03T03:17:55;15.10;99.90
15160;DHT22;7680;48.800;9.680;2022-09-03T03:20:30;15.20;99.90
15160;DHT22;7680;48.800;9.680;2022-09-03T03:23:03;15.20;99.90
15160;DHT22;7680;48.800;9.680;2022-09-03T03:25:38;15.20;99.90
15160;DHT22;7680;48.800;9.680;2022-09-03T03:28:11;15.20;99.90
15160;DHT22;7680;48.800;9.680;2022-09-03T03:30:49;15.20;99.90
15160;DHT22;7680;48.800;9.680;2022-09-03T03:33:23;15.20;99.90
15160;DHT22;7680;48.800;9.680;2022-09-03T03:36:03;15.20;99.90
15160;DHT22;7680;48.800;9.680;2022-09-03T03:38:38;15.20;99.90
15160;DHT22;7680;48.800;9.680;2022-09-03T03:41:13;15.20;99.90
15160;DHT22;7680;48.800;9.680;2022-09-03T03:43:51;15.30;99.90
15160;DHT22;7680;48.800;9.680;2022-09-03T03:46:29;15.20;99.90
15160;DHT22;7680;48.800;9.680;2022-09-03T03:49:03;15.30;99.90
15160;DHT22;7680;48.800;9.680;2022-09-03T03:51:39;15.20;99.90
15160;DHT22;7680;48.800;9.680;2022-09-03T03:54:12;15.20;99.90
15160;DHT22;7680;48.800;9.680;2022-09-03T03:56:48;15.00;99.90
15160;DHT22;7680;48.800;9.680;2022-09-03T03:59:26;15.00;99.90
15160;DHT22;7680;48.800;9.680;2022-09-03T04:01:59;15.00;99.90
15160;DHT22;7680;48.800;9.680;2022-09-03T04:04:33;15.00;99.90
15160;DHT22;7680;48.800;9.680;2022-09-03T04:07:08;15.00;99.90
15160;DHT22;7680;48.800;9.680;2022-09-03T04:09:41;14.90;99.90
15160;DHT22;7680;48.800;9.680;2022-09-03T04:12:14;14.80;99.90
15160;DHT22;7680;48.800;9.680;2022-09-03T04:14:49;14.70;99.90
15160;DHT22;7680;48.800;9.680;2022-09-03T04:17:22;14.70;99.90
15160;DHT22;7680;48.800;9.680;2022-09-03T04:19:56;14.60;99.90
15160;DHT22;7680;48.800;9.680;2022-09-03T04:22:30;14.60;99.90
15160;DHT22;7680;48.800;9.680;2022-09-03T04:25:05;14.70;99.90
15160;DHT22;7680;48.800;9.680;2022-09-03T04:27:38;14.80;99.90
15160;DHT22;7680;48.800;9.680;2022-09-03T04:30:12;14.80;99.90
15160;DHT22;7680;48.800;9.680;2022-09-03T04:32:45;14.70;99.90
15160;DHT22;7680;48.800;9.680;2022-09-03T04:35:27;14.70;99.90
15160;DHT22;7680;48.800;9.680;2022-09-03T04:38:03;14.80;99.90
15160;DHT22;7680;48.800;9.680;2022-09-03T04:40:36;14.70;99.90
15160;DHT22;7680;48.800;9.680;2022-09-03T04:43:10;14.70;99.90
15160;DHT22;7680;48.800;9.680;2022-09-03T04:45:43;14.80;99.90
15160;DHT22;7680;48.800;9.680;2022-09-03T04:48:16;14.80;99.90
15160;DHT22;7680;48.800;9.680;2022-09-03T04:50:49;14.90;99.90
15160;DHT22;7680;48.800;9.680;2022-09-03T04:53:23;15.00;99.90
15160;DHT22;7680;48.800;9.680;2022-09-03T04:55:57;15.20;99.90
15160;DHT22;7680;48.800;9.680;2022-09-03T04:58:30;15.30;99.90
15160;DHT22;7680;48.800;9.680;2022-09-03T05:01:07;15.40;99.90
15160;DHT22;7680;48.800;9.680;2022-09-03T05:03:40;15.30;99.90
15160;DHT22;7680;48.800;9.680;2022-09-03T05:06:13;15.30;99.90
15160;DHT22;7680;48.800;9.680;2022-09-03T05:08:49;15.40;99.90
15160;DHT22;7680;48.800;9.680;2022-09-03T05:11:25;15.40;99.90
15160;DHT22;7680;48.800;9.680;2022-09-03T05:13:59;15.40;99.90
15160;DHT22;7680;48.800;9.680;2022-09-03T05:16:32;15.30;99.90
15160;DHT22;7680;48.800;9.680;2022-09-03T05:19:06;15.20;99.90
15160;DHT22;7680;48.800;9.680;2022-09-03T05:21:41;15.20;99.90
15160;DHT22;7680;48.800;9.680;2022-09-03T05:24:16;15.20;99.90
15160;DHT22;7680;48.800;9.680;2022-09-03T05:26:49;15.20;99.90
15160;DHT22;7680;48.800;9.680;2022-09-03T05:29:22;15.30;99.90
15160;DHT22;7680;48.800;9.680;2022-09-03T05:31:55;15.30;99.90
15160;DHT22;7680;48.800;9.680;2022-09-03T05:34:29;15.40;99.90
15160;DHT22;7680;48.800;9.680;2022-09-03T05:37:03;15.40;99.90
15160;DHT22;7680;48.800;9.680;2022-09-03T05:39:38;15.40;99.90
15160;DHT22;7680;48.800;9.680;2022-09-03T05:42:11;15.30;99.90
15160;DHT22;7680;48.800;9.680;2022-09-03T05:44:45;15.30;99.90
15160;DHT22;7680;48.800;9.680;2022-09-03T05:47:20;15.30;99.90
15160;DHT22;7680;48.800;9.680;2022-09-03T05:49:53;15.30;99.90
15160;DHT22;7680;48.800;9.680;2022-09-03T05:52:26;15.40;99.90
15160;DHT22;7680;48.800;9.680;2022-09-03T05:55:01;15.40;99.90
15160;DHT22;7680;48.800;9.680;2022-09-03T05:57:34;15.40;99.90
15160;DHT22;7680;48.800;9.680;2022-09-03T06:00:09;15.50;99.90
15160;DHT22;7680;48.800;9.680;2022-09-03T06:02:43;15.50;99.90
15160;DHT22;7680;48.800;9.680;2022-09-03T06:05:22;15.60;99.90
15160;DHT22;7680;48.800;9.680;2022-09-03T06:07:55;15.70;99.90
15160;DHT22;7680;48.800;9.680;2022-09-03T06:10:29;15.80;99.90
15160;DHT22;7680;48.800;9.680;2022-09-03T06:13:11;15.90;99.90
15160;DHT22;7680;48.800;9.680;2022-09-03T06:15:44;16.00;99.90
15160;DHT22;7680;48.800;9.680;2022-09-03T06:18:17;16.10;99.90
15160;DHT22;7680;48.800;9.680;2022-09-03T06:20:54;16.30;99.90
15160;DHT22;7680;48.800;9.680;2022-09-03T06:23:28;16.40;99.90
15160;DHT22;7680;48.800;9.680;2022-09-03T06:26:05;16.60;99.90
15160;DHT22;7680;48.800;9.680;2022-09-03T06:28:42;16.70;99.90
15160;DHT22;7680;48.800;9.680;2022-09-03T06:31:17;16.90;99.90
15160;DHT22;7680;48.800;9.680;2022-09-03T06:33:52;17.00;99.90
15160;DHT22;7680;48.800;9.680;2022-09-03T06:36:25;17.00;99.90
15160;DHT22;7680;48.800;9.680;2022-09-03T06:38:59;17.00;99.90
15160;DHT22;7680;48.800;9.680;2022-09-03T06:41:34;17.00;99.90
15160;DHT22;7680;48.800;9.680;2022-09-03T06:44:07;17.10;99.90
15160;DHT22;7680;48.800;9.680;2022-09-03T06:46:43;17.10;99.90
15160;DHT22;7680;48.800;9.680;2022-09-03T06:49:18;17.00;99.90
15160;DHT22;7680;48.800;9.680;2022-09-03T06:51:51;17.00;99.90
15160;DHT22;7680;48.800;9.680;2022-09-03T06:54:24;17.00;99.90
15160;DHT22;7680;48.800;9.680;2022-09-03T06:56:59;17.10;99.90
15160;DHT22;7680;48.800;9.680;2022-09-03T06:59:32;17.20;99.90
15160;DHT22;7680;48.800;9.680;2022-09-03T07:02:05;17.30;99.90
15160;DHT22;7680;48.800;9.680;2022-09-03T07:04:39;17.20;99.90
15160;DHT22;7680;48.800;9.680;2022-09-03T07:07:15;17.30;99.90
15160;DHT22;7680;48.800;9.680;2022-09-03T07:09:49;17.50;99.90
15160;DHT22;7680;48.800;9.680;2022-09-03T07:12:24;17.70;99.90
15160;DHT22;7680;48.800;9.680;2022-09-03T07:14:57;18.30;99.90
15160;DHT22;7680;48.800;9.680;2022-09-03T07:17:31;18.80;99.90
15160;DHT22;7680;48.800;9.680;2022-09-03T07:20:04;19.00;99.90
15160;DHT22;7680;48.800;9.680;2022-09-03T07:22:39;19.00;99.90
15160;DHT22;7680;48.800;9.680;2022-09-03T07:25:12;19.00;99.90
15160;DHT22;7680;48.800;9.680;2022-09-03T07:27:46;19.20;99.90
15160;DHT22;7680;48.800;9.680;2022-09-03T07:30:21;19.30;99.90
15160;DHT22;7680;48.800;9.680;2022-09-03T07:32:57;19.20;99.90
15160;DHT22;7680;48.800;9.680;2022-09-03T07:35:35;19.00;99.90
15160;DHT22;7680;48.800;9.680;2022-09-03T07:38:08;19.10;99.90
15160;DHT22;7680;48.800;9.680;2022-09-03T07:40:42;19.20;99.90
15160;DHT22;7680;48.800;9.680;2022-09-03T07:43:16;19.20;99.90
15160;DHT22;7680;48.800;9.680;2022-09-03T07:45:51;19.10;99.90
15160;DHT22;7680;48.800;9.680;2022-09-03T07:48:25;19.10;99.90
15160;DHT22;7680;48.800;9.680;2022-09-03T07:50:59;19.20;99.90
15160;DHT22;7680;48.800;9.680;2022-09-03T07:53:33;19.20;99.90
15160;DHT22;7680;48.800;9.680;2022-09-03T07:56:09;19.20;99.90
15160;DHT22;7680;48.800;9.680;2022-09-03T07:58:44;19.20;99.90
15160;DHT22;7680;48.800;9.680;2022-09-03T08:01:20;19.20;99.90
15160;DHT22;7680;48.800;9.680;2022-09-03T08:03:54;19.20;99.90
15160;DHT22;7680;48.800;9.680;2022-09-03T08:06:29;19.10;99.90
15160;DHT22;7680;48.800;9.680;2022-09-03T08:09:04;19.10;99.90
15160;DHT22;7680;48.800;9.680;2022-09-03T08:11:40;19.20;99.90
15160;DHT22;7680;48.800;9.680;2022-09-03T08:14:15;19.30;99.90
15160;DHT22;7680;48.800;9.680;2022-09-03T08:16:50;19.30;99.90
15160;DHT22;7680;48.800;9.680;2022-09-03T08:19:23;19.50;99.90
15160;DHT22;7680;48.800;9.680;2022-09-03T08:21:56;19.50;99.90
15160;DHT22;7680;48.800;9.680;2022-09-03T08:24:29;19.50;99.90
15160;DHT22;7680;48.800;9.680;2022-09-03T08:27:04;19.60;99.90
15160;DHT22;7680;48.800;9.680;2022-09-03T08:29:39;19.70;99.90
15160;DHT22;7680;48.800;9.680;2022-09-03T08:32:12;19.90;99.90
15160;DHT22;7680;48.800;9.680;2022-09-03T08:34:45;20.00;99.90
15160;DHT22;7680;48.800;9.680;2022-09-03T08:37:19;20.10;99.90
15160;DHT22;7680;48.800;9.680;2022-09-03T08:40:01;20.20;99.90
15160;DHT22;7680;48.800;9.680;2022-09-03T08:42:44;20.30;99.90
15160;DHT22;7680;48.800;9.680;2022-09-03T08:45:23;20.40;99.90
15160;DHT22;7680;48.800;9.680;2022-09-03T08:48:02;20.20;99.90
15160;DHT22;7680;48.800;9.680;2022-09-03T08:50:40;20.40;99.90
15160;DHT22;7680;48.800;9.680;2022-09-03T08:53:21;20.50;99.90
15160;DHT22;7680;48.800;9.680;2022-09-03T08:56:03;20.70;99.90
15160;DHT22;7680;48.800;9.680;2022-09-03T08:58:40;20.80;99.90
15160;DHT22;7680;48.800;9.680;2022-09-03T09:01:26;21.00;99.40
15160;DHT22;7680;48.800;9.680;2022-09-03T09:04:10;21.20;98.80
15160;DHT22;7680;48.800;9.680;2022-09-03T09:06:58;21.10;99.10
15160;DHT22;7680;48.800;9.680;2022-09-03T09:09:43;21.10;99.30
15160;DHT22;7680;48.800;9.680;2022-09-03T09:12:28;21.30;99.20
15160;DHT22;7680;48.800;9.680;2022-09-03T09:15:27;21.30;99.70
15160;DHT22;7680;48.800;9.680;2022-09-03T09:18:12;21.30;99.80
15160;DHT22;7680;48.800;9.680;2022-09-03T09:20:50;21.40;99.40
15160;DHT22;7680;48.800;9.680;2022-09-03T09:23:28;21.50;99.60
15160;DHT22;7680;48.800;9.680;2022-09-03T09:26:07;21.50;99.90
15160;DHT22;7680;48.800;9.680;2022-09-03T09:28:44;21.40;99.90
15160;DHT22;7680;48.800;9.680;2022-09-03T09:31:21;21.60;99.70
15160;DHT22;7680;48.800;9.680;2022-09-03T09:34:00;21.90;99.60
15160;DHT22;7680;48.800;9.680;2022-09-03T09:36:42;22.00;99.00
15160;DHT22;7680;48.800;9.680;2022-09-03T09:39:19;22.20;98.00
15160;DHT22;7680;48.800;9.680;2022-09-03T09:41:57;22.40;97.80
15160;DHT22;7680;48.800;9.680;2022-09-03T09:44:31;22.60;97.00
15160;DHT22;7680;48.800;9.680;2022-09-03T09:47:07;22.70;96.90
15160;DHT22;7680;48.800;9.680;2022-09-03T09:49:51;22.90;96.70
15160;DHT22;7680;48.800;9.680;2022-09-03T09:52:27;23.00;95.90
15160;DHT22;7680;48.800;9.680;2022-09-03T09:55:07;23.20;95.90
15160;DHT22;7680;48.800;9.680;2022-09-03T09:57:42;23.60;95.20
15160;DHT22;7680;48.800;9.680;2022-09-03T10:00:17;23.70;95.10
15160;DHT22;7680;48.800;9.680;2022-09-03T10:02:52;24.00;94.40
15160;DHT22;7680;48.800;9.680;2022-09-03T10:05:28;24.40;92.90
15160;DHT22;7680;48.800;9.680;2022-09-03T10:08:06;24.70;91.30
15160;DHT22;7680;48.800;9.680;2022-09-03T10:10:51;24.90;91.20
15160;DHT22;7680;48.800;9.680;2022-09-03T10:13:29;24.70;91.00
15160;DHT22;7680;48.800;9.680;2022-09-03T10:16:14;24.70;90.30
15160;DHT22;7680;48.800;9.680;2022-09-03T10:18:59;24.90;90.00
15160;DHT22;7680;48.800;9.680;2022-09-03T10:21:42;25.10;89.40
15160;DHT22;7680;48.800;9.680;2022-09-03T10:24:36;25.40;87.70
15160;DHT22;7680;48.800;9.680;2022-09-03T10:27:15;25.50;87.70
15160;DHT22;7680;48.800;9.680;2022-09-03T10:29:49;25.70;86.70
15160;DHT22;7680;48.800;9.680;2022-09-03T10:32:34;25.70;86.70
15160;DHT22;7680;48.800;9.680;2022-09-03T10:35:19;25.30;88.80
15160;DHT22;7680;48.800;9.680;2022-09-03T10:38:07;25.30;89.10
15160;DHT22;7680;48.800;9.680;2022-09-03T10:40:51;25.20;89.00
15160;DHT22;7680;48.800;9.680;2022-09-03T10:43:52;25.10;88.80
15160;DHT22;7680;48.800;9.680;2022-09-03T10:46:40;24.90;89.80
15160;DHT22;7680;48.800;9.680;2022-09-03T10:49:45;25.00;89.60
15160;DHT22;7680;48.800;9.680;2022-09-03T10:52:26;25.00;89.30
15160;DHT22;7680;48.800;9.680;2022-09-03T10:55:13;25.00;89.40
15160;DHT22;7680;48.800;9.680;2022-09-03T10:57:57;25.00;89.80
15160;DHT22;7680;48.800;9.680;2022-09-03T11:00:40;25.10;90.20
15160;DHT22;7680;48.800;9.680;2022-09-03T11:03:38;25.20;90.30
15160;DHT22;7680;48.800;9.680;2022-09-03T11:06:20;25.10;90.40
15160;DHT22;7680;48.800;9.680;2022-09-03T11:08:59;25.10;90.80
15160;DHT22;7680;48.800;9.680;2022-09-03T11:11:44;25.10;90.20
15160;DHT22;7680;48.800;9.680;2022-09-03T11:14:27;25.10;90.60
15160;DHT22;7680;48.800;9.680;2022-09-03T11:17:09;25.20;90.30
15160;DHT22;7680;48.800;9.680;2022-09-03T11:19:46;25.10;90.20
15160;DHT22;7680;48.800;9.680;2022-09-03T11:22:25;25.10;90.40
15160;DHT22;7680;48.800;9.680;2022-09-03T11:25:01;25.10;90.30
15160;DHT22;7680;48.800;9.680;2022-09-03T11:27:50;24.90;90.50
15160;DHT22;7680;48.800;9.680;2022-09-03T11:30:33;24.70;90.90
15160;DHT22;7680;48.800;9.680;2022-09-03T11:33:10;24.60;91.60
15160;DHT22;7680;48.800;9.680;2022-09-03T11:35:45;24.60;91.40
15160;DHT22;7680;48.800;9.680;2022-09-03T11:38:20;24.50;91.80
15160;DHT22;7680;48.800;9.680;2022-09-03T11:41:00;24.50;91.60
15160;DHT22;7680;48.800;9.680;2022-09-03T11:43:38;24.50;91.30
15160;DHT22;7680;48.800;9.680;2022-09-03T11:46:25;24.40;92.10
15160;DHT22;7680;48.800;9.680;2022-09-03T11:49:09;24.40;92.80
15160;DHT22;7680;48.800;9.680;2022-09-03T11:51:57;24.60;91.70
15160;DHT22;7680;48.800;9.680;2022-09-03T11:54:42;24.70;91.00
15160;DHT22;7680;48.800;9.680;2022-09-03T11:57:23;24.60;91.10
15160;DHT22;7680;48.800;9.680;2022-09-03T12:00:12;24.50;91.50
15160;DHT22;7680;48.800;9.680;2022-09-03T12:02:50;24.60;91.50
15160;DHT22;7680;48.800;9.680;2022-09-03T12:05:35;24.60;91.70
15160;DHT22;7680;48.800;9.680;2022-09-03T12:08:38;24.40;91.90
15160;DHT22;7680;48.800;9.680;2022-09-03T12:11:36;24.40;92.00
15160;DHT22;7680;48.800;9.680;2022-09-03T12:14:25;24.30;92.30
15160;DHT22;7680;48.800;9.680;2022-09-03T12:17:13;24.20;92.80
15160;DHT22;7680;48.800;9.680;2022-09-03T12:19:56;24.00;93.10
15160;DHT22;7680;48.800;9.680;2022-09-03T12:22:35;24.00;93.20
15160;DHT22;7680;48.800;9.680;2022-09-03T12:25:12;23.90;93.60
15160;DHT22;7680;48.800;9.680;2022-09-03T12:27:47;23.70;94.30
15160;DHT22;7680;48.800;9.680;2022-09-03T12:30:22;23.60;94.90
15160;DHT22;7680;48.800;9.680;2022-09-03T12:33:04;23.50;94.80
15160;DHT22;7680;48.800;9.680;2022-09-03T12:35:38;23.40;95.60
15160;DHT22;7680;48.800;9.680;2022-09-03T12:38:31;23.20;95.60
15160;DHT22;7680;48.800;9.680;2022-09-03T12:41:24;23.10;96.10
15160;DHT22;7680;48.800;9.680;2022-09-03T12:43:59;23.00;96.60
15160;DHT22;7680;48.800;9.680;2022-09-03T12:46:33;22.90;96.90
15160;DHT22;7680;48.800;9.680;2022-09-03T12:49:14;22.80;97.60
15160;DHT22;7680;48.800;9.680;2022-09-03T12:52:07;22.70;98.60
15160;DHT22;7680;48.800;9.680;2022-09-03T12:54:49;22.60;99.20
15160;DHT22;7680;48.800;9.680;2022-09-03T12:57:30;22.50;99.90
15160;DHT22;7680;48.800;9.680;2022-09-03T13:00:08;22.40;99.90
15160;DHT22;7680;48.800;9.680;2022-09-03T13:02:46;22.20;99.90
15160;DHT22;7680;48.800;9.680;2022-09-03T13:05:30;22.00;99.90
15160;DHT22;7680;48.800;9.680;2022-09-03T13:08:06;21.60;99.90
15160;DHT22;7680;48.800;9.680;2022-09-03T13:10:41;21.00;99.90
15160;DHT22;7680;48.800;9.680;2022-09-03T13:13:20;20.50;99.90
15160;DHT22;7680;48.800;9.680;2022-09-03T13:16:34;20.20;99.90
15160;DHT22;7680;48.800;9.680;2022-09-03T13:19:46;19.90;99.90
15160;DHT22;7680;48.800;9.680;2022-09-03T13:22:34;19.60;99.90
15160;DHT22;7680;48.800;9.680;2022-09-03T13:25:15;19.30;99.90
15160;DHT22;7680;48.800;9.680;2022-09-03T13:27:58;19.00;99.90
15160;DHT22;7680;48.800;9.680;2022-09-03T13:30:47;18.70;99.90
15160;DHT22;7680;48.800;9.680;2022-09-03T13:33:28;18.60;99.90
15160;DHT22;7680;48.800;9.680;2022-09-03T13:36:09;18.30;99.90
15160;DHT22;7680;48.800;9.680;2022-09-03T13:38:52;18.10;99.90
15160;DHT22;7680;48.800;9.680;2022-09-03T13:41:33;18.00;99.90
15160;DHT22;7680;48.800;9.680;2022-09-03T13:44:13;17.90;99.90
15160;DHT22;7680;48.800;9.680;2022-09-03T13:46:52;17.70;99.90
15160;DHT22;7680;48.800;9.680;2022-09-03T13:49:35;17.50;99.90
15160;DHT22;7680;48.800;9.680;2022-09-03T13:52:33;17.40;99.90
15160;DHT22;7680;48.800;9.680;2022-09-03T13:55:19;17.40;99.90
15160;DHT22;7680;48.800;9.680;2022-09-03T13:57:58;17.50;99.90
15160;DHT22;7680;48.800;9.680;2022-09-03T14:00:39;17.40;99.90
15160;DHT22;7680;48.800;9.680;2022-09-03T14:03:23;17.50;99.90
15160;DHT22;7680;48.800;9.680;2022-09-03T14:06:08;17.50;99.90
15160;DHT22;7680;48.800;9.680;2022-09-03T14:08:55;17.60;99.90
15160;DHT22;7680;48.800;9.680;2022-09-03T14:11:45;17.70;99.90
15160;DHT22;7680;48.800;9.680;2022-09-03T14:14:33;17.70;99.90
15160;DHT22;7680;48.800;9.680;2022-09-03T14:17:15;17.80;99.90
15160;DHT22;7680;48.800;9.680;2022-09-03T14:19:59;17.80;99.90
15160;DHT22;7680;48.800;9.680;2022-09-03T14:22:45;17.80;99.90
15160;DHT22;7680;48.800;9.680;2022-09-03T14:25:24;17.90;99.90
15160;DHT22;7680;48.800;9.680;2022-09-03T14:28:14;17.90;99.90
15160;DHT22;7680;48.800;9.680;2022-09-03T14:31:00;18.00;99.90
15160;DHT22;7680;48.800;9.680;2022-09-03T14:33:46;18.00;99.90
15160;DHT22;7680;48.800;9.680;2022-09-03T14:36:27;18.00;99.90
15160;DHT22;7680;48.800;9.680;2022-09-03T14:39:31;18.10;99.90
15160;DHT22;7680;48.800;9.680;2022-09-03T14:42:21;18.00;99.90
15160;DHT22;7680;48.800;9.680;2022-09-03T14:45:24;18.10;99.90
15160;DHT22;7680;48.800;9.680;2022-09-03T14:48:27;18.20;99.90
15160;DHT22;7680;48.800;9.680;2022-09-03T14:51:22;18.20;99.90
15160;DHT22;7680;48.800;9.680;2022-09-03T14:54:22;18.20;99.90
15160;DHT22;7680;48.800;9.680;2022-09-03T14:57:31;18.20;99.90
15160;DHT22;7680;48.800;9.680;2022-09-03T15:00:15;18.30;99.90
15160;DHT22;7680;48.800;9.680;2022-09-03T15:03:08;18.50;99.90
15160;DHT22;7680;48.800;9.680;2022-09-03T15:06:06;18.60;99.90
15160;DHT22;7680;48.800;9.680;2022-09-03T15:09:04;18.70;99.90
15160;DHT22;7680;48.800;9.680;2022-09-03T15:12:00;18.70;99.90
15160;DHT22;7680;48.800;9.680;2022-09-03T15:14:40;18.80;99.90
15160;DHT22;7680;48.800;9.680;2022-09-03T15:17:31;18.90;99.90
15160;DHT22;7680;48.800;9.680;2022-09-03T15:20:27;18.90;99.90
15160;DHT22;7680;48.800;9.680;2022-09-03T15:23:20;19.00;99.90
15160;DHT22;7680;48.800;9.680;2022-09-03T15:26:20;18.90;99.90
15160;DHT22;7680;48.800;9.680;2022-09-03T15:29:22;18.80;99.90
15160;DHT22;7680;48.800;9.680;2022-09-03T15:32:09;18.70;99.90
15160;DHT22;7680;48.800;9.680;2022-09-03T15:34:57;18.70;99.90
15160;DHT22;7680;48.800;9.680;2022-09-03T15:37:42;18.70;99.90
15160;DHT22;7680;48.800;9.680;2022-09-03T15:40:27;18.60;99.90
15160;DHT22;7680;48.800;9.680;2022-09-03T15:43:05;18.70;99.90
15160;DHT22;7680;48.800;9.680;2022-09-03T15:45:51;18.70;99.90
15160;DHT22;7680;48.800;9.680;2022-09-03T15:48:33;18.70;99.90
15160;DHT22;7680;48.800;9.680;2022-09-03T15:51:15;18.80;99.90
15160;DHT22;7680;48.800;9.680;2022-09-03T15:53:54;18.80;99.90
15160;DHT22;7680;48.800;9.680;2022-09-03T15:56:38;18.80;99.90
15160;DHT22;7680;48.800;9.680;2022-09-03T15:59:21;18.80;99.90
15160;DHT22;7680;48.800;9.680;2022-09-03T16:02:04;19.00;99.90
15160;DHT22;7680;48.800;9.680;2022-09-03T16:04:55;19.00;99.90
15160;DHT22;7680;48.800;9.680;2022-09-03T16:07:51;19.00;99.90
15160;DHT22;7680;48.800;9.680;2022-09-03T16:10:45;19.00;99.90
15160;DHT22;7680;48.800;9.680;2022-09-03T16:13:31;19.00;99.90
15160;DHT22;7680;48.800;9.680;2022-09-03T16:16:15;19.00;99.90
15160;DHT22;7680;48.800;9.680;2022-09-03T16:18:59;19.00;99.90
15160;DHT22;7680;48.800;9.680;2022-09-03T16:21:40;19.00;99.90
15160;DHT22;7680;48.800;9.680;2022-09-03T16:24:20;19.00;99.90
15160;DHT22;7680;48.800;9.680;2022-09-03T16:27:01;18.90;99.90
15160;DHT22;7680;48.800;9.680;2022-09-03T16:29:36;18.90;99.90
15160;DHT22;7680;48.800;9.680;2022-09-03T16:32:16;18.80;99.90
15160;DHT22;7680;48.800;9.680;2022-09-03T16:35:06;18.80;99.90
15160;DHT22;7680;48.800;9.680;2022-09-03T16:37:57;18.80;99.90
15160;DHT22;7680;48.800;9.680;2022-09-03T16:40:40;18.70;99.90
15160;DHT22;7680;48.800;9.680;2022-09-03T16:43:24;18.70;99.90
15160;DHT22;7680;48.800;9.680;2022-09-03T16:46:22;18.60;99.90
15160;DHT22;7680;48.800;9.680;2022-09-03T16:49:10;18.60;99.90
15160;DHT22;7680;48.800;9.680;2022-09-03T16:51:54;18.50;99.90
15160;DHT22;7680;48.800;9.680;2022-09-03T16:54:39;18.50;99.90
15160;DHT22;7680;48.800;9.680;2022-09-03T16:57:38;18.50;99.90
15160;DHT22;7680;48.800;9.680;2022-09-03T17:00:37;18.40;99.90
15160;DHT22;7680;48.800;9.680;2022-09-03T17:03:51;18.40;99.90
15160;DHT22;7680;48.800;9.680;2022-09-03T17:06:40;18.40;99.90
15160;DHT22;7680;48.800;9.680;2022-09-03T17:09:30;18.30;99.90
15160;DHT22;7680;48.800;9.680;2022-09-03T17:12:15;18.30;99.90